SBI1035 USSS-USTR
Flight info
| Callsign | SBI1035 |
|---|---|
| Flight time | 0h 37m |
| Altitude | 31000 |
| Route | ANAT6A ANATU P135 SOPUS T448 BANAM DCT BUKOS BUKO2D |
| Aircraft | A320/M-SBDFGM3RWXY/LB1 |
Departure
| Time | 2026-04-27 17:00 |
|---|---|
| Airport | Koltsovo Airport (USSS) |
Arrival
| Time | 2026-04-27 17:38 |
|---|---|
| Airport | Roshchino International Airport (USTR) |
| Time | Latitude | Longitude | Altitude | Speed | Heading |
|---|---|---|---|---|---|
| 2026-04-27 16:23 | 56.74788 | 60.80010 | 747 ft | 0 kts | 1° |
| 2026-04-27 16:50 | 56.74793 | 60.80010 | 747 ft | 2 kts | 1° |
| 2026-04-27 16:50 | 56.74824 | 60.80016 | 748 ft | 6 kts | 20° |
| 2026-04-27 16:50 | 56.74847 | 60.80094 | 749 ft | 9 kts | 85° |
| 2026-04-27 16:51 | 56.74847 | 60.80246 | 751 ft | 14 kts | 91° |
| 2026-04-27 16:51 | 56.74847 | 60.80459 | 752 ft | 19 kts | 90° |
| 2026-04-27 16:51 | 56.74847 | 60.80735 | 754 ft | 24 kts | 90° |
| 2026-04-27 16:51 | 56.74847 | 60.81014 | 756 ft | 20 kts | 85° |
| 2026-04-27 16:52 | 56.74860 | 60.81281 | 765 ft | 21 kts | 90° |
| 2026-04-27 16:52 | 56.74860 | 60.81554 | 773 ft | 22 kts | 90° |
| 2026-04-27 16:52 | 56.74856 | 60.81834 | 776 ft | 19 kts | 103° |
| 2026-04-27 16:52 | 56.74792 | 60.82089 | 773 ft | 19 kts | 114° |
| 2026-04-27 16:53 | 56.74683 | 60.82209 | 767 ft | 24 kts | 181° |
| 2026-04-27 16:53 | 56.74666 | 60.82209 | 766 ft | 0 kts | 181° |
| 2026-04-27 16:53 | 56.74664 | 60.82209 | 766 ft | 2 kts | 181° |
| 2026-04-27 16:54 | 56.74598 | 60.82207 | 762 ft | 10 kts | 180° |
| 2026-04-27 16:54 | 56.74595 | 60.82207 | 762 ft | 0 kts | 180° |
| 2026-04-27 16:54 | 56.74596 | 60.82207 | 762 ft | 0 kts | 180° |
| 2026-04-27 16:55 | 56.74595 | 60.82207 | 762 ft | 1 kts | 180° |
| 2026-04-27 16:56 | 56.74549 | 60.82207 | 759 ft | 12 kts | 180° |
| 2026-04-27 16:56 | 56.74433 | 60.82203 | 757 ft | 19 kts | 184° |
| 2026-04-27 16:56 | 56.74291 | 60.82185 | 756 ft | 22 kts | 184° |
| 2026-04-27 16:56 | 56.74178 | 60.82170 | 754 ft | 0 kts | 184° |
| 2026-04-27 16:58 | 56.74164 | 60.82169 | 754 ft | 6 kts | 184° |
| 2026-04-27 16:58 | 56.74094 | 60.82159 | 753 ft | 11 kts | 192° |
| 2026-04-27 16:58 | 56.74068 | 60.82018 | 753 ft | 0 kts | 274° |
| 2026-04-27 16:59 | 56.74068 | 60.82019 | 753 ft | 0 kts | 274° |
| 2026-04-27 16:59 | 56.74078 | 60.81742 | 750 ft | 60 kts | 274° |
| 2026-04-27 16:59 | 56.74128 | 60.80538 | 744 ft | 129 kts | 273° |
| 2026-04-27 17:00 | 56.74336 | 60.77238 | 1127 ft | 174 kts | 272° |
| 2026-04-27 17:00 | 56.74445 | 60.74108 | 1390 ft | 193 kts | 270° |
| 2026-04-27 17:00 | 56.74514 | 60.71632 | 1725 ft | 201 kts | 270° |
| 2026-04-27 17:01 | 56.74589 | 60.69126 | 2600 ft | 199 kts | 270° |
| 2026-04-27 17:01 | 56.74669 | 60.66630 | 3463 ft | 198 kts | 270° |
| 2026-04-27 17:01 | 56.74750 | 60.64169 | 4256 ft | 200 kts | 270° |
| 2026-04-27 17:01 | 56.74638 | 60.61687 | 5034 ft | 197 kts | 246° |
| 2026-04-27 17:02 | 56.73819 | 60.59818 | 5797 ft | 193 kts | 212° |
| 2026-04-27 17:02 | 56.72556 | 60.59138 | 6550 ft | 196 kts | 180° |
| 2026-04-27 17:02 | 56.71272 | 60.59890 | 7272 ft | 204 kts | 148° |
| 2026-04-27 17:02 | 56.70421 | 60.61930 | 7962 ft | 215 kts | 112° |
| 2026-04-27 17:03 | 56.70401 | 60.64699 | 8650 ft | 226 kts | 78° |
| 2026-04-27 17:03 | 56.70867 | 60.67408 | 9342 ft | 229 kts | 73° |
| 2026-04-27 17:03 | 56.71394 | 60.70142 | 10005 ft | 233 kts | 72° |
| 2026-04-27 17:03 | 56.71931 | 60.72951 | 10674 ft | 237 kts | 72° |
| 2026-04-27 17:04 | 56.72461 | 60.75806 | 11333 ft | 240 kts | 73° |
| 2026-04-27 17:04 | 56.72991 | 60.78722 | 11985 ft | 243 kts | 72° |
| 2026-04-27 17:04 | 56.73519 | 60.81653 | 12626 ft | 246 kts | 73° |
| 2026-04-27 17:04 | 56.74063 | 60.84598 | 13247 ft | 250 kts | 68° |
| 2026-04-27 17:05 | 56.75087 | 60.87199 | 13606 ft | 263 kts | 36° |
| 2026-04-27 17:05 | 56.76807 | 60.88473 | 13808 ft | 279 kts | 1° |
| 2026-04-27 17:05 | 56.78786 | 60.88676 | 14257 ft | 294 kts | 5° |
| 2026-04-27 17:05 | 56.80129 | 60.89206 | 14498 ft | 309 kts | 14° |
| 2026-04-27 17:06 | 56.82936 | 60.91040 | 14995 ft | 334 kts | 20° |
| 2026-04-27 17:06 | 56.85136 | 60.92722 | 15330 ft | 352 kts | 21° |
| 2026-04-27 17:06 | 56.87394 | 60.94684 | 15621 ft | 372 kts | 31° |
| 2026-04-27 17:06 | 56.89362 | 60.97881 | 15891 ft | 391 kts | 52° |
| 2026-04-27 17:07 | 56.90723 | 61.02285 | 16196 ft | 406 kts | 66° |
| 2026-04-27 17:07 | 56.91815 | 61.07099 | 16723 ft | 413 kts | 69° |
| 2026-04-27 17:07 | 56.92896 | 61.12005 | 17347 ft | 418 kts | 68° |
| 2026-04-27 17:07 | 56.94016 | 61.16953 | 17955 ft | 422 kts | 68° |
| 2026-04-27 17:08 | 56.95163 | 61.21867 | 18534 ft | 427 kts | 67° |
| 2026-04-27 17:08 | 56.96362 | 61.26934 | 19116 ft | 431 kts | 67° |
| 2026-04-27 17:08 | 56.97561 | 61.31984 | 19685 ft | 435 kts | 67° |
| 2026-04-27 17:08 | 56.98759 | 61.37041 | 20237 ft | 439 kts | 67° |
| 2026-04-27 17:09 | 56.99985 | 61.42226 | 20789 ft | 443 kts | 67° |
| 2026-04-27 17:09 | 57.01209 | 61.47420 | 21321 ft | 447 kts | 67° |
| 2026-04-27 17:09 | 57.02435 | 61.52637 | 21834 ft | 451 kts | 67° |
| 2026-04-27 17:09 | 57.03685 | 61.57965 | 22343 ft | 455 kts | 67° |
| 2026-04-27 17:10 | 57.04932 | 61.63294 | 22692 ft | 462 kts | 67° |
| 2026-04-27 17:10 | 57.06207 | 61.68761 | 23072 ft | 468 kts | 68° |
| 2026-04-27 17:10 | 57.07481 | 61.74234 | 23534 ft | 471 kts | 68° |
| 2026-04-27 17:10 | 57.08776 | 61.79815 | 23995 ft | 473 kts | 68° |
| 2026-04-27 17:11 | 57.10063 | 61.85373 | 24428 ft | 476 kts | 68° |
| 2026-04-27 17:11 | 57.11856 | 61.96978 | 25180 ft | 477 kts | 92° |
| 2026-04-27 17:11 | 57.11560 | 62.03047 | 25635 ft | 475 kts | 101° |
| 2026-04-27 17:12 | 57.10452 | 62.15029 | 26320 ft | 474 kts | 102° |
| 2026-04-27 17:12 | 57.09932 | 62.20982 | 26346 ft | 465 kts | 101° |
| 2026-04-27 17:12 | 57.09464 | 62.26788 | 25729 ft | 464 kts | 101° |
| 2026-04-27 17:13 | 57.09020 | 62.32645 | 24726 ft | 469 kts | 100° |
| 2026-04-27 17:13 | 57.08591 | 62.38567 | 23887 ft | 470 kts | 99° |
| 2026-04-27 17:13 | 57.08172 | 62.44513 | 23371 ft | 462 kts | 99° |
| 2026-04-27 17:13 | 57.07766 | 62.50298 | 22811 ft | 456 kts | 99° |
| 2026-04-27 17:14 | 57.07365 | 62.56002 | 22198 ft | 452 kts | 99° |
| 2026-04-27 17:14 | 57.06958 | 62.61750 | 21577 ft | 448 kts | 99° |
| 2026-04-27 17:14 | 57.06559 | 62.67373 | 20969 ft | 444 kts | 100° |
| 2026-04-27 17:14 | 57.06162 | 62.72950 | 20367 ft | 440 kts | 100° |
| 2026-04-27 17:15 | 57.05765 | 62.78470 | 19760 ft | 436 kts | 100° |
| 2026-04-27 17:15 | 57.05370 | 62.83933 | 19155 ft | 431 kts | 100° |
| 2026-04-27 17:15 | 57.04977 | 62.89331 | 18552 ft | 427 kts | 100° |
| 2026-04-27 17:15 | 57.04581 | 62.94735 | 17950 ft | 423 kts | 100° |
| 2026-04-27 17:16 | 57.04190 | 63.00060 | 17362 ft | 419 kts | 100° |
| 2026-04-27 17:16 | 57.03795 | 63.05389 | 16773 ft | 414 kts | 101° |
| 2026-04-27 17:16 | 57.03409 | 63.10557 | 15988 ft | 416 kts | 101° |
| 2026-04-27 17:16 | 57.03010 | 63.15843 | 14901 ft | 424 kts | 100° |
| 2026-04-27 17:17 | 57.02603 | 63.21223 | 13988 ft | 425 kts | 100° |
| 2026-04-27 17:17 | 57.02204 | 63.26505 | 13320 ft | 420 kts | 100° |
| 2026-04-27 17:17 | 57.01803 | 63.31792 | 12667 ft | 415 kts | 100° |
| 2026-04-27 17:18 | 57.01005 | 63.42181 | 12164 ft | 412 kts | 100° |
| 2026-04-27 17:18 | 57.00601 | 63.47381 | 12157 ft | 413 kts | 100° |
| 2026-04-27 17:18 | 57.00191 | 63.52631 | 12155 ft | 413 kts | 100° |
| 2026-04-27 17:18 | 56.99778 | 63.57903 | 12154 ft | 412 kts | 100° |
| 2026-04-27 17:19 | 56.99372 | 63.63042 | 12153 ft | 412 kts | 100° |
| 2026-04-27 17:19 | 56.98958 | 63.68260 | 12152 ft | 412 kts | 101° |
| 2026-04-27 17:19 | 56.98538 | 63.73534 | 12152 ft | 412 kts | 101° |
| 2026-04-27 17:19 | 56.98121 | 63.78747 | 12152 ft | 412 kts | 101° |
| 2026-04-27 17:20 | 56.97698 | 63.83988 | 12151 ft | 412 kts | 101° |
| 2026-04-27 17:20 | 56.97277 | 63.89187 | 12152 ft | 413 kts | 101° |
| 2026-04-27 17:20 | 56.96852 | 63.94394 | 12151 ft | 412 kts | 101° |
| 2026-04-27 17:20 | 56.96435 | 63.99495 | 12035 ft | 402 kts | 101° |
| 2026-04-27 17:21 | 56.96024 | 64.04498 | 11795 ft | 388 kts | 101° |
| 2026-04-27 17:21 | 56.95628 | 64.09274 | 11440 ft | 378 kts | 101° |
| 2026-04-27 17:21 | 56.95231 | 64.14024 | 10884 ft | 375 kts | 101° |
| 2026-04-27 17:21 | 56.94839 | 64.18697 | 10493 ft | 366 kts | 101° |
| 2026-04-27 17:22 | 56.94459 | 64.23223 | 10274 ft | 353 kts | 101° |
| 2026-04-27 17:22 | 56.94094 | 64.27546 | 10062 ft | 341 kts | 102° |
| 2026-04-27 17:22 | 56.93735 | 64.31784 | 9856 ft | 329 kts | 102° |
| 2026-04-27 17:22 | 56.93393 | 64.35812 | 9660 ft | 318 kts | 102° |
| 2026-04-27 17:23 | 56.93058 | 64.39744 | 9471 ft | 308 kts | 102° |
| 2026-04-27 17:23 | 56.92727 | 64.43586 | 9285 ft | 298 kts | 102° |
| 2026-04-27 17:23 | 56.92412 | 64.47246 | 9064 ft | 290 kts | 102° |
| 2026-04-27 17:23 | 56.92097 | 64.50868 | 8714 ft | 287 kts | 102° |
| 2026-04-27 17:24 | 56.91787 | 64.54433 | 8410 ft | 283 kts | 102° |
| 2026-04-27 17:24 | 56.91548 | 64.58051 | 8357 ft | 287 kts | 93° |
| 2026-04-27 17:24 | 56.91798 | 64.61713 | 8349 ft | 292 kts | 76° |
| 2026-04-27 17:24 | 56.92604 | 64.65085 | 8309 ft | 292 kts | 59° |
| 2026-04-27 17:25 | 56.93897 | 64.67960 | 7971 ft | 292 kts | 45° |
| 2026-04-27 17:25 | 56.95385 | 64.70480 | 7566 ft | 292 kts | 43° |
| 2026-04-27 17:25 | 56.96892 | 64.72921 | 7199 ft | 290 kts | 43° |
| 2026-04-27 17:25 | 56.98403 | 64.75376 | 6839 ft | 288 kts | 43° |
| 2026-04-27 17:26 | 56.99893 | 64.77830 | 6479 ft | 286 kts | 43° |
| 2026-04-27 17:26 | 57.01362 | 64.80274 | 6121 ft | 284 kts | 44° |
| 2026-04-27 17:26 | 57.02812 | 64.82704 | 5765 ft | 282 kts | 44° |
| 2026-04-27 17:26 | 57.04246 | 64.85118 | 5411 ft | 280 kts | 44° |
| 2026-04-27 17:27 | 57.05672 | 64.87524 | 5056 ft | 278 kts | 44° |
| 2026-04-27 17:27 | 57.07101 | 64.89941 | 4698 ft | 276 kts | 44° |
| 2026-04-27 17:27 | 57.08512 | 64.92332 | 4344 ft | 274 kts | 44° |
| 2026-04-27 17:27 | 57.09909 | 64.94701 | 3992 ft | 272 kts | 44° |
| 2026-04-27 17:28 | 57.11286 | 64.97038 | 3645 ft | 270 kts | 44° |
| 2026-04-27 17:28 | 57.12660 | 64.99375 | 3300 ft | 268 kts | 44° |
| 2026-04-27 17:28 | 57.15387 | 65.04022 | 3158 ft | 268 kts | 44° |
| 2026-04-27 17:29 | 57.16752 | 65.06349 | 3155 ft | 268 kts | 44° |
| 2026-04-27 17:29 | 57.18110 | 65.08667 | 3153 ft | 268 kts | 44° |
| 2026-04-27 17:29 | 57.19485 | 65.11017 | 3153 ft | 268 kts | 44° |
| 2026-04-27 17:29 | 57.20853 | 65.13359 | 3153 ft | 268 kts | 44° |
| 2026-04-27 17:30 | 57.22212 | 65.15686 | 3153 ft | 268 kts | 44° |
| 2026-04-27 17:30 | 57.24940 | 65.20367 | 3152 ft | 268 kts | 44° |
| 2026-04-27 17:30 | 57.26303 | 65.22709 | 3153 ft | 268 kts | 44° |
| 2026-04-27 17:31 | 57.27679 | 65.25079 | 3154 ft | 268 kts | 44° |
| 2026-04-27 17:31 | 57.29058 | 65.27454 | 3154 ft | 268 kts | 44° |
| 2026-04-27 17:31 | 57.30409 | 65.29783 | 3154 ft | 268 kts | 44° |
| 2026-04-27 17:31 | 57.31768 | 65.32129 | 3007 ft | 264 kts | 44° |
| 2026-04-27 17:32 | 57.33107 | 65.34443 | 2810 ft | 264 kts | 44° |
| 2026-04-27 17:32 | 57.34977 | 65.40002 | 2783 ft | 258 kts | 91° |
| 2026-04-27 17:32 | 57.34598 | 65.43173 | 2788 ft | 253 kts | 121° |
| 2026-04-27 17:33 | 57.33472 | 65.45610 | 2799 ft | 250 kts | 140° |
| 2026-04-27 17:33 | 57.32171 | 65.47709 | 2794 ft | 250 kts | 141° |
| 2026-04-27 17:33 | 57.30880 | 65.49777 | 2786 ft | 238 kts | 142° |
| 2026-04-27 17:33 | 57.29478 | 65.51178 | 2632 ft | 226 kts | 173° |
| 2026-04-27 17:34 | 57.28007 | 65.50659 | 2428 ft | 215 kts | 211° |
| 2026-04-27 17:34 | 57.26961 | 65.48850 | 2298 ft | 197 kts | 229° |
| 2026-04-27 17:34 | 57.26167 | 65.46946 | 2420 ft | 177 kts | 229° |
| 2026-04-27 17:34 | 57.25432 | 65.45283 | 2262 ft | 161 kts | 226° |
| 2026-04-27 17:35 | 57.24721 | 65.43810 | 1991 ft | 149 kts | 225° |
| 2026-04-27 17:35 | 57.24056 | 65.42388 | 1665 ft | 142 kts | 226° |
| 2026-04-27 17:35 | 57.23422 | 65.41059 | 1423 ft | 134 kts | 225° |
| 2026-04-27 17:35 | 57.22802 | 65.39786 | 1271 ft | 134 kts | 224° |
| 2026-04-27 17:36 | 57.22158 | 65.38538 | 1156 ft | 134 kts | 224° |
| 2026-04-27 17:36 | 57.21518 | 65.37273 | 1093 ft | 134 kts | 225° |
| 2026-04-27 17:36 | 57.20880 | 65.36001 | 908 ft | 134 kts | 224° |
| 2026-04-27 17:36 | 57.20254 | 65.34758 | 757 ft | 133 kts | 224° |
| 2026-04-27 17:37 | 57.20092 | 65.34441 | 729 ft | 133 kts | 224° |
| 2026-04-27 17:37 | 57.19456 | 65.33196 | 531 ft | 132 kts | 225° |
| 2026-04-27 17:37 | 57.18834 | 65.31954 | 404 ft | 131 kts | 225° |
| 2026-04-27 17:37 | 57.18248 | 65.30753 | 352 ft | 116 kts | 225° |
| 2026-04-27 17:38 | 57.17807 | 65.29903 | 363 ft | 68 kts | 220° |
| 2026-04-27 17:38 | 57.17649 | 65.29575 | 368 ft | 13 kts | 227° |
| 2026-04-27 17:38 | 57.17585 | 65.29447 | 369 ft | 14 kts | 227° |
| 2026-04-27 17:38 | 57.17501 | 65.29329 | 370 ft | 16 kts | 173° |
| 2026-04-27 17:39 | 57.17408 | 65.29462 | 371 ft | 17 kts | 139° |
| 2026-04-27 17:39 | 57.17418 | 65.29653 | 371 ft | 19 kts | 48° |
| 2026-04-27 17:39 | 57.17519 | 65.29861 | 366 ft | 23 kts | 47° |
| 2026-04-27 17:39 | 57.17638 | 65.30101 | 361 ft | 27 kts | 47° |
| 2026-04-27 17:40 | 57.17765 | 65.30360 | 357 ft | 28 kts | 47° |
| 2026-04-27 17:40 | 57.17902 | 65.30635 | 353 ft | 27 kts | 47° |
| 2026-04-27 17:40 | 57.18024 | 65.30885 | 350 ft | 27 kts | 47° |
| 2026-04-27 17:40 | 57.18157 | 65.31153 | 350 ft | 28 kts | 47° |
| 2026-04-27 17:41 | 57.18295 | 65.31432 | 347 ft | 30 kts | 45° |
| 2026-04-27 17:41 | 57.18434 | 65.31711 | 341 ft | 19 kts | 52° |
| 2026-04-27 17:41 | 57.18456 | 65.31975 | 338 ft | 22 kts | 87° |
| 2026-04-27 17:41 | 57.18462 | 65.32291 | 335 ft | 25 kts | 88° |
| 2026-04-27 17:42 | 57.18468 | 65.32612 | 331 ft | 26 kts | 88° |
| 2026-04-27 17:42 | 57.18475 | 65.32941 | 326 ft | 22 kts | 87° |
| 2026-04-27 17:42 | 57.18526 | 65.33180 | 322 ft | 22 kts | 45° |
| 2026-04-27 17:42 | 57.18617 | 65.33384 | 316 ft | 21 kts | 78° |
| 2026-04-27 17:43 | 57.18590 | 65.33646 | 314 ft | 19 kts | 135° |
| 2026-04-27 17:43 | 57.18494 | 65.33827 | 317 ft | 19 kts | 135° |
| 2026-04-27 17:43 | 57.18399 | 65.34000 | 321 ft | 19 kts | 135° |
| 2026-04-27 17:43 | 57.18306 | 65.34174 | 324 ft | 19 kts | 133° |
| 2026-04-27 17:44 | 57.18241 | 65.34327 | 325 ft | 11 kts | 93° |
| 2026-04-27 17:44 | 57.18261 | 65.34400 | 325 ft | 0 kts | 44° |